createdAt,value
2023-04-21T00:03:00.725Z,8.61
2023-04-21T00:06:13.156Z,8.59
2023-04-21T00:09:05.602Z,8.58
2023-04-21T00:12:33.780Z,8.55
2023-04-21T00:15:43.847Z,8.50
2023-04-21T00:18:23.919Z,8.46
2023-04-21T00:21:36.835Z,8.42
2023-04-21T00:25:01.994Z,8.38
2023-04-21T00:28:14.204Z,8.35
2023-04-21T00:31:42.164Z,8.32
2023-04-21T00:34:12.231Z,8.28
2023-04-21T00:37:35.559Z,8.25
2023-04-21T00:40:26.420Z,8.25
2023-04-21T00:43:35.553Z,8.20
2023-04-21T00:46:43.981Z,8.20
2023-04-21T00:49:32.870Z,8.17
2023-04-21T00:52:41.009Z,8.16
2023-04-21T00:55:50.364Z,8.08
2023-04-21T00:58:56.257Z,8.01
2023-04-21T01:02:07.951Z,7.99
2023-04-21T01:05:17.029Z,7.94
2023-04-21T01:07:48.347Z,7.98
2023-04-21T01:11:00.817Z,7.99
2023-04-21T01:14:17.628Z,7.95
2023-04-21T01:17:17.126Z,7.92
2023-04-21T01:20:01.832Z,7.91
2023-04-21T01:23:06.464Z,7.93
2023-04-21T01:26:16.982Z,7.92
2023-04-21T01:29:45.065Z,7.93
2023-04-21T01:32:53.561Z,7.93
2023-04-21T01:36:21.454Z,7.92
2023-04-21T01:39:30.761Z,7.90
2023-04-21T01:42:43.420Z,7.89
2023-04-21T01:45:53.546Z,7.85
2023-04-21T01:48:43.903Z,7.85
2023-04-21T01:51:35.394Z,7.82
2023-04-21T01:54:44.345Z,7.81
2023-04-21T01:58:08.069Z,7.83
2023-04-21T02:01:00.083Z,7.83
2023-04-21T02:04:08.719Z,7.80
2023-04-21T02:06:58.958Z,7.79
2023-04-21T02:10:07.465Z,7.77
2023-04-21T02:12:40.597Z,7.74
2023-04-21T02:15:59.580Z,7.65
2023-04-21T02:19:18.193Z,7.63
2023-04-21T02:22:07.426Z,7.62
2023-04-21T02:25:17.628Z,7.59
2023-04-21T02:27:48.485Z,7.55
2023-04-21T02:30:18.535Z,7.53
2023-04-21T02:33:11.314Z,7.52
2023-04-21T02:35:42.135Z,7.51
2023-04-21T02:38:46.440Z,7.46
2023-04-21T02:42:14.501Z,7.43
2023-04-21T02:44:46.785Z,7.37
2023-04-21T02:47:42.713Z,7.35
2023-04-21T02:50:31.689Z,7.33
2023-04-21T02:53:24.103Z,7.29
2023-04-21T02:56:32.973Z,7.23
2023-04-21T02:59:40.934Z,7.19
2023-04-21T03:02:29.849Z,7.17
2023-04-21T03:05:42.374Z,7.12
2023-04-21T03:08:50.396Z,7.07
2023-04-21T03:11:44.035Z,7.06
2023-04-21T03:14:33.869Z,7.04
2023-04-21T03:17:25.977Z,7.01
2023-04-21T03:20:30.091Z,6.96
2023-04-21T03:23:23.349Z,6.92
2023-04-21T03:26:12.449Z,6.90
2023-04-21T03:29:40.514Z,6.87
2023-04-21T03:33:08.707Z,6.84
2023-04-21T03:35:59.033Z,6.83
2023-04-21T03:39:19.749Z,6.79
2023-04-21T03:42:16.678Z,6.76
2023-04-21T03:44:44.862Z,6.77
2023-04-21T03:48:08.963Z,6.73
2023-04-21T03:51:01.685Z,6.72
2023-04-21T03:53:53.929Z,6.70
2023-04-21T03:56:50.505Z,6.69
2023-04-21T03:59:59.296Z,6.68
2023-04-21T04:03:27.621Z,6.67
2023-04-21T04:06:36.490Z,6.74
2023-04-21T04:09:44.347Z,6.77
2023-04-21T04:12:35.217Z,6.77
2023-04-21T04:15:44.339Z,6.81
2023-04-21T04:18:53.078Z,6.82
2023-04-21T04:22:20.979Z,6.75
2023-04-21T04:25:10.229Z,6.77
2023-04-21T04:28:18.719Z,6.80
2023-04-21T04:31:06.911Z,6.83
2023-04-21T04:34:17.165Z,6.87
2023-04-21T04:37:27.119Z,6.90
2023-04-21T04:40:17.643Z,6.90
2023-04-21T04:43:47.286Z,6.96
2023-04-21T04:46:55.800Z,6.98
2023-04-21T04:50:04.865Z,7.04
2023-04-21T04:53:32.698Z,7.08
2023-04-21T04:57:00.703Z,7.16
2023-04-21T05:00:08.760Z,7.24
2023-04-21T05:02:53.754Z,7.34
2023-04-21T05:06:03.548Z,7.36
2023-04-21T05:08:32.510Z,7.43
2023-04-21T05:11:44.370Z,7.53
2023-04-21T05:14:49.111Z,7.61
2023-04-21T05:17:21.204Z,7.67
2023-04-21T05:20:14.095Z,7.74
2023-04-21T05:23:23.313Z,7.80
2023-04-21T05:26:51.793Z,7.90
2023-04-21T05:30:15.925Z,8.01
2023-04-21T05:33:08.660Z,8.14
2023-04-21T05:36:16.766Z,8.28
2023-04-21T05:39:44.737Z,8.41
2023-04-21T05:42:40.481Z,8.52
2023-04-21T05:46:08.950Z,8.64
2023-04-21T05:49:36.904Z,8.74
2023-04-21T05:52:45.223Z,8.83
2023-04-21T05:55:54.013Z,8.97
2023-04-21T05:58:43.016Z,9.11
2023-04-21T06:01:53.112Z,9.32
2023-04-21T06:04:24.534Z,9.51
2023-04-21T06:07:52.031Z,9.71
2023-04-21T06:11:07.707Z,9.94
2023-04-21T06:14:12.057Z,10.14
2023-04-21T06:17:01.012Z,10.33
2023-04-21T06:19:51.109Z,10.50
2023-04-21T06:23:01.184Z,10.85
2023-04-21T06:26:11.076Z,11.05
2023-04-21T06:29:00.671Z,11.16
2023-04-21T06:31:50.533Z,11.34
2023-04-21T06:35:02.437Z,11.55
2023-04-21T06:38:14.542Z,11.69
2023-04-21T06:41:38.059Z,11.85
2023-04-21T06:44:30.403Z,11.97
2023-04-21T06:47:23.293Z,12.13
2023-04-21T06:49:55.895Z,12.31
2023-04-21T06:53:04.905Z,12.52
2023-04-21T06:56:00.979Z,12.72
2023-04-21T06:58:30.643Z,12.88
2023-04-21T07:01:15.079Z,13.08
2023-04-21T07:04:24.025Z,13.27
2023-04-21T07:07:12.107Z,13.43
2023-04-21T07:09:49.638Z,13.53
2023-04-21T07:12:18.057Z,13.68
2023-04-21T07:15:10.455Z,13.90
2023-04-21T07:17:59.054Z,14.08
2023-04-21T07:20:48.421Z,14.21
2023-04-21T07:23:36.470Z,14.31
2023-04-21T07:26:44.576Z,14.49
2023-04-21T07:30:00.811Z,14.68
2023-04-21T07:32:49.399Z,14.81
2023-04-21T07:35:40.229Z,14.92
2023-04-21T07:38:32.394Z,15.07
2023-04-21T07:41:22.939Z,15.23
2023-04-21T07:44:50.971Z,15.34
2023-04-21T07:47:42.065Z,15.43
2023-04-21T07:50:15.241Z,15.47
2023-04-21T07:53:18.958Z,15.57
2023-04-21T07:56:09.264Z,15.77
2023-04-21T07:58:43.488Z,15.94
2023-04-21T08:01:52.375Z,16.09
2023-04-21T08:04:20.793Z,16.13
2023-04-21T08:06:51.546Z,16.16
2023-04-21T08:09:41.015Z,16.19
2023-04-21T08:12:53.302Z,16.29
2023-04-21T08:15:40.140Z,16.49
2023-04-21T08:18:43.929Z,16.69
2023-04-21T08:21:30.757Z,16.69
2023-04-21T08:24:03.129Z,16.69
2023-04-21T08:27:14.819Z,16.54
2023-04-21T08:30:04.709Z,16.60
2023-04-21T08:32:54.647Z,16.71
2023-04-21T08:36:07.298Z,16.82
2023-04-21T08:39:00.384Z,16.89
2023-04-21T08:42:08.508Z,17.01
2023-04-21T08:44:37.585Z,17.05
2023-04-21T08:47:26.158Z,17.20
2023-04-21T08:50:00.760Z,17.23
2023-04-21T08:52:31.905Z,17.39
2023-04-21T08:55:21.000Z,17.25
2023-04-21T08:58:30.656Z,17.43
2023-04-21T09:01:22.783Z,17.71
2023-04-21T09:04:51.339Z,17.76
2023-04-21T09:07:22.089Z,17.70
2023-04-21T09:10:11.215Z,17.26
2023-04-21T09:13:20.434Z,17.19
2023-04-21T09:16:20.398Z,17.15
2023-04-21T09:18:59.018Z,17.10
2023-04-21T09:21:58.919Z,17.30
2023-04-21T09:24:30.804Z,17.41
2023-04-21T09:27:54.599Z,17.48
2023-04-21T09:30:38.853Z,17.48
2023-04-21T09:34:06.990Z,17.83
2023-04-21T09:36:35.748Z,17.68
2023-04-21T09:39:34.336Z,17.62
2023-04-21T09:42:20.573Z,17.72
2023-04-21T09:45:23.711Z,17.83
2023-04-21T09:48:07.238Z,17.75
2023-04-21T09:53:15.031Z,17.81
2023-04-21T09:56:16.070Z,17.89
2023-04-21T09:58:46.908Z,17.83
2023-04-21T10:01:37.011Z,17.92
2023-04-21T10:04:07.116Z,18.06
2023-04-21T10:06:37.260Z,18.23
2023-04-21T10:09:05.740Z,18.05
2023-04-21T10:11:35.238Z,18.24
2023-04-21T10:14:24.969Z,18.33
2023-04-21T10:16:55.334Z,18.20
2023-04-21T10:19:24.540Z,18.06
2023-04-21T10:21:53.776Z,18.07
2023-04-21T10:24:29.817Z,18.23
2023-04-21T10:27:01.928Z,18.28
2023-04-21T10:32:40.262Z,18.16
2023-04-21T10:35:09.861Z,18.38
2023-04-21T10:37:39.024Z,18.44
2023-04-21T10:40:09.498Z,18.56
2023-04-21T10:42:39.462Z,18.50
2023-04-21T10:45:11.638Z,18.51
2023-04-21T10:47:40.762Z,18.49
2023-04-21T10:50:17.267Z,18.68
2023-04-21T10:52:46.323Z,18.85
2023-04-21T10:55:42.860Z,18.84
2023-04-21T10:58:12.862Z,18.98
2023-04-21T11:00:46.921Z,18.94
2023-04-21T11:03:18.484Z,19.08
2023-04-21T11:06:27.196Z,19.42
2023-04-21T11:09:35.735Z,19.50
2023-04-21T11:12:06.734Z,19.53
2023-04-21T11:15:16.836Z,19.86
2023-04-21T11:17:46.479Z,20.03
2023-04-21T11:20:15.435Z,19.89
2023-04-21T11:23:07.514Z,20.02
2023-04-21T11:26:31.847Z,20.28
2023-04-21T11:29:01.268Z,20.34
2023-04-21T11:31:51.269Z,20.29
2023-04-21T11:34:21.575Z,20.07
2023-04-21T11:36:53.965Z,19.92
2023-04-21T11:39:25.182Z,20.02
2023-04-21T11:42:18.175Z,20.10
2023-04-21T11:44:46.541Z,20.09
2023-04-21T11:47:14.564Z,20.34
2023-04-21T11:49:58.148Z,20.44
2023-04-21T11:52:26.662Z,20.60
2023-04-21T11:55:06.015Z,20.22
2023-04-21T11:57:55.034Z,20.69
2023-04-21T12:01:02.974Z,20.73
2023-04-21T12:03:31.732Z,20.81
2023-04-21T12:06:21.148Z,21.07
2023-04-21T12:08:49.635Z,21.18
2023-04-21T12:11:20.717Z,20.92
2023-04-21T12:14:36.420Z,20.76
2023-04-21T12:17:32.198Z,20.73
2023-04-21T12:20:02.814Z,20.97
2023-04-21T12:22:55.717Z,20.89
2023-04-21T12:25:24.523Z,21.42
2023-04-21T12:27:53.013Z,21.79
2023-04-21T12:30:21.776Z,21.80
2023-04-21T12:32:50.802Z,22.18
2023-04-21T12:35:23.608Z,22.75
2023-04-21T12:37:53.115Z,23.03
2023-04-21T12:40:21.748Z,23.17
2023-04-21T12:42:50.057Z,23.33
2023-04-21T12:45:18.063Z,23.31
2023-04-21T12:47:46.976Z,23.43
2023-04-21T12:50:15.518Z,23.48
2023-04-21T12:52:46.894Z,23.82
2023-04-21T12:55:14.827Z,23.56
2023-04-21T12:57:42.776Z,23.31
2023-04-21T13:00:12.625Z,23.59
2023-04-21T13:02:43.269Z,23.83
2023-04-21T13:05:14.182Z,24.28
2023-04-21T13:07:42.176Z,24.22
2023-04-21T13:10:10.307Z,24.30
2023-04-21T13:12:39.237Z,24.22
2023-04-21T13:15:10.219Z,24.32
2023-04-21T13:17:38.134Z,24.54
2023-04-21T13:20:06.783Z,24.69
2023-04-21T13:22:34.809Z,24.91
2023-04-21T13:25:03.132Z,25.12
2023-04-21T13:27:43.039Z,25.44
2023-04-21T13:30:11.495Z,25.70
2023-04-21T13:32:41.942Z,25.42
2023-04-21T13:35:10.122Z,25.63
2023-04-21T13:38:38.202Z,25.39
2023-04-21T13:41:06.686Z,25.49
2023-04-21T13:43:50.599Z,25.41
2023-04-21T13:46:19.271Z,24.83
2023-04-21T13:48:48.278Z,24.60
2023-04-21T13:51:17.485Z,24.98
2023-04-21T13:53:47.983Z,25.47
2023-04-21T13:56:18.598Z,25.39
2023-04-21T13:58:47.743Z,25.71
2023-04-21T14:01:39.698Z,25.91
2023-04-21T14:04:08.693Z,25.58
2023-04-21T14:06:38.391Z,25.75
2023-04-21T14:09:06.604Z,25.77
2023-04-21T14:11:39.965Z,25.88
2023-04-21T14:14:37.884Z,26.06
2023-04-21T14:17:08.219Z,26.53
2023-04-21T14:19:40.264Z,26.55
2023-04-21T14:22:11.209Z,27.18
2023-04-21T14:24:41.485Z,27.25
2023-04-21T14:27:12.645Z,27.15
2023-04-21T14:29:58.672Z,27.43
2023-04-21T14:32:42.105Z,27.46
2023-04-21T14:35:50.312Z,27.18
2023-04-21T14:38:26.751Z,27.31
2023-04-21T14:41:16.944Z,27.56
2023-04-21T14:44:05.725Z,27.65
2023-04-21T14:46:34.600Z,27.94
2023-04-21T14:49:04.634Z,27.80
2023-04-21T14:52:14.912Z,27.84
2023-04-21T14:54:43.919Z,27.55
2023-04-21T14:57:56.677Z,27.84
2023-04-21T15:00:45.013Z,27.72
2023-04-21T15:04:03.081Z,28.40
2023-04-21T15:07:11.727Z,28.34
2023-04-21T15:10:39.802Z,27.87
2023-04-21T15:14:03.472Z,27.84
2023-04-21T15:17:31.928Z,28.05
2023-04-21T15:20:43.126Z,27.70
2023-04-21T15:23:55.931Z,28.24
2023-04-21T15:27:23.979Z,28.47
2023-04-21T15:30:52.234Z,28.77
2023-04-21T15:34:01.150Z,29.25
2023-04-21T15:37:29.082Z,28.98
2023-04-21T15:40:49.428Z,28.56
2023-04-21T15:43:45.796Z,28.32
2023-04-21T15:47:02.663Z,29.04
2023-04-21T15:50:07.115Z,28.83
2023-04-21T15:53:35.141Z,28.38
2023-04-21T15:57:03.026Z,27.76
2023-04-21T15:59:52.077Z,28.04
2023-04-21T16:03:00.433Z,27.83
2023-04-21T16:06:09.180Z,27.28
2023-04-21T16:09:09.637Z,26.92
2023-04-21T16:12:37.521Z,27.15
2023-04-21T16:15:45.484Z,27.49
2023-04-21T16:19:13.812Z,27.10
2023-04-21T16:22:22.806Z,26.99
2023-04-21T16:25:12.222Z,26.77
2023-04-21T16:28:00.294Z,26.90
2023-04-21T16:30:48.964Z,26.83
2023-04-21T16:34:16.840Z,26.54
2023-04-21T16:37:45.432Z,26.25
2023-04-21T16:41:13.328Z,25.72
2023-04-21T16:44:09.540Z,25.31
2023-04-21T16:47:40.373Z,25.02
2023-04-21T16:50:45.301Z,24.44
2023-04-21T16:54:13.258Z,24.13
2023-04-21T16:57:29.070Z,23.12
2023-04-21T17:00:37.660Z,22.40
2023-04-21T17:04:05.586Z,21.84
2023-04-21T17:07:33.644Z,21.15
2023-04-21T17:11:01.576Z,20.67
2023-04-21T17:14:29.824Z,20.37
2023-04-21T17:17:58.421Z,19.91
2023-04-21T17:21:26.461Z,19.52
2023-04-21T17:24:51.579Z,19.10
2023-04-21T17:28:04.419Z,18.78
2023-04-21T17:31:15.761Z,18.54
2023-04-21T17:34:41.573Z,18.28
2023-04-21T17:37:31.397Z,18.03
2023-04-21T17:40:40.406Z,17.90
2023-04-21T17:44:08.536Z,17.76
2023-04-21T17:47:36.723Z,17.65
2023-04-21T17:51:04.764Z,17.51
2023-04-21T17:54:32.918Z,17.41
2023-04-21T17:58:00.882Z,17.35
2023-04-21T18:01:29.201Z,17.31
2023-04-21T18:04:57.355Z,17.26
2023-04-21T18:08:24.999Z,17.16
2023-04-21T18:11:40.621Z,17.10
2023-04-21T18:15:08.936Z,17.07
2023-04-21T18:18:16.800Z,17.03
2023-04-21T18:21:45.225Z,17.01
2023-04-21T18:24:53.315Z,16.98
2023-04-21T18:28:21.372Z,16.94
2023-04-21T18:31:49.310Z,16.96
2023-04-21T18:35:17.439Z,16.90
2023-04-21T18:38:45.522Z,16.80
2023-04-21T18:42:13.463Z,16.75
2023-04-21T18:45:41.292Z,16.71
2023-04-21T18:49:09.523Z,16.64
2023-04-21T18:52:37.441Z,16.57
2023-04-21T18:56:05.462Z,16.50
2023-04-21T18:59:33.526Z,16.40
2023-04-21T19:03:01.764Z,16.28
2023-04-21T19:06:29.688Z,16.25
2023-04-21T19:09:57.814Z,16.19
2023-04-21T19:13:25.958Z,16.11
2023-04-21T19:16:53.744Z,16.08
2023-04-21T19:19:43.124Z,16.07
2023-04-21T19:23:11.189Z,16.08
2023-04-21T19:26:38.967Z,16.04
2023-04-21T19:30:07.052Z,15.92
2023-04-21T19:33:35.028Z,15.86
2023-04-21T19:37:03.225Z,15.77
2023-04-21T19:40:31.273Z,15.69
2023-04-21T19:43:59.252Z,15.66
2023-04-21T19:47:27.004Z,15.61
2023-04-21T19:50:35.379Z,15.59
2023-04-21T19:54:11.355Z,15.59
2023-04-21T19:57:31.058Z,15.54
2023-04-21T20:00:59.207Z,15.49
2023-04-21T20:04:27.708Z,15.43
2023-04-21T20:07:58.056Z,15.38
2023-04-21T20:11:06.063Z,15.36
2023-04-21T20:14:33.958Z,15.32
2023-04-21T20:18:01.928Z,15.28
2023-04-21T20:21:29.690Z,15.26
2023-04-21T20:24:57.745Z,15.24
2023-04-21T20:28:26.089Z,15.21
2023-04-21T20:31:14.536Z,15.21
2023-04-21T20:34:42.643Z,15.18
2023-04-21T20:38:10.652Z,15.13
2023-04-21T20:41:38.825Z,15.10
2023-04-21T20:44:47.441Z,15.08
2023-04-21T20:47:56.652Z,15.02
2023-04-21T20:51:20.553Z,14.93
2023-04-21T20:54:48.463Z,14.80
2023-04-21T20:58:16.485Z,14.74
2023-04-21T21:01:44.244Z,14.71
2023-04-21T21:05:12.014Z,14.69
2023-04-21T21:08:20.831Z,14.62
2023-04-21T21:11:53.121Z,14.59
2023-04-21T21:14:51.249Z,14.59
2023-04-21T21:18:19.140Z,14.54
2023-04-21T21:21:29.607Z,14.52
2023-04-21T21:24:57.588Z,14.51
2023-04-21T21:28:25.475Z,14.42
2023-04-21T21:31:35.164Z,14.37
2023-04-21T21:35:02.893Z,14.35
2023-04-21T21:38:11.697Z,14.33
2023-04-21T21:41:40.041Z,14.30
2023-04-21T21:45:07.791Z,14.25
2023-04-21T21:48:35.774Z,14.20
2023-04-21T21:55:34.036Z,14.06
2023-04-21T21:59:01.938Z,14.03
2023-04-21T22:02:29.669Z,14.00
2023-04-21T22:05:57.599Z,13.92
2023-04-21T22:09:26.351Z,13.85
2023-04-21T22:12:54.315Z,13.85
2023-04-21T22:16:03.063Z,13.80
2023-04-21T22:19:14.667Z,13.74
2023-04-21T22:22:23.455Z,13.68
2023-04-21T22:25:51.186Z,13.61
2023-04-21T22:29:19.276Z,13.58
2023-04-21T22:32:47.277Z,13.52
2023-04-21T22:36:15.018Z,13.49
2023-04-21T22:39:43.239Z,13.46
2023-04-21T22:43:11.214Z,13.47
2023-04-21T22:46:02.170Z,13.45
2023-04-21T22:49:30.041Z,13.43
2023-04-21T22:52:58.050Z,13.46
2023-04-21T22:56:26.077Z,13.47
2023-04-21T22:59:54.264Z,13.50
2023-04-21T23:03:04.176Z,13.49
2023-04-21T23:06:31.934Z,13.51
2023-04-21T23:09:59.853Z,13.49
2023-04-21T23:13:27.965Z,13.47
2023-04-21T23:16:56.041Z,13.46
2023-04-21T23:20:04.922Z,13.44
2023-04-21T23:23:32.879Z,13.36
2023-04-21T23:27:00.858Z,13.33
2023-04-21T23:30:28.635Z,13.30
2023-04-21T23:33:56.405Z,13.24
2023-04-21T23:37:24.309Z,13.19
2023-04-21T23:40:52.425Z,13.13
2023-04-21T23:44:20.297Z,13.01
2023-04-21T23:47:29.102Z,12.84
2023-04-21T23:50:57.070Z,12.75
2023-04-21T23:54:24.685Z,12.73
2023-04-21T23:57:54.245Z,12.70
